createdAt,value
2022-11-15T00:08:04.704Z,5.17
2022-11-15T00:10:36.170Z,5.80
2022-11-15T00:13:34.466Z,5.00
2022-11-15T00:20:46.728Z,5.93
2022-11-15T00:34:35.676Z,5.27
2022-11-15T00:37:33.703Z,6.30
2022-11-15T00:50:14.112Z,6.50
2022-11-15T00:58:56.203Z,6.13
2022-11-15T01:12:27.584Z,5.07
2022-11-15T01:15:05.649Z,5.23
2022-11-15T01:21:36.856Z,5.43
2022-11-15T01:24:28.402Z,5.07
2022-11-15T01:27:24.342Z,5.27
2022-11-15T01:33:49.144Z,5.57
2022-11-15T01:54:59.503Z,4.97
2022-11-15T02:00:40.837Z,5.87
2022-11-15T02:03:58.498Z,6.13
2022-11-15T02:06:29.653Z,7.07
2022-11-15T02:09:21.877Z,4.40
2022-11-15T02:15:14.118Z,6.13
2022-11-15T02:18:04.719Z,6.20
2022-11-15T02:21:39.190Z,5.17
2022-11-15T02:28:15.351Z,5.37
2022-11-15T02:31:01.241Z,5.63
2022-11-15T02:34:06.416Z,4.83
2022-11-15T02:45:53.375Z,5.03
2022-11-15T02:49:59.055Z,5.50
2022-11-15T02:52:38.826Z,5.03
2022-11-15T02:55:36.695Z,5.23
2022-11-15T03:24:04.251Z,5.73
2022-11-15T03:26:51.251Z,5.50
2022-11-15T03:29:55.813Z,4.83
2022-11-15T03:32:39.075Z,4.97
2022-11-15T03:35:46.932Z,5.80
2022-11-15T03:41:53.188Z,5.40
2022-11-15T03:44:41.470Z,5.90
2022-11-15T03:47:26.022Z,4.80
2022-11-15T03:50:17.814Z,4.37
2022-11-15T03:52:53.184Z,5.33
2022-11-15T03:55:27.034Z,5.90
2022-11-15T04:09:24.919Z,4.60
2022-11-15T04:11:55.327Z,5.07
2022-11-15T04:41:38.445Z,5.03
2022-11-15T04:44:38.381Z,5.00
2022-11-15T04:47:21.439Z,6.97
2022-11-15T04:53:45.193Z,5.13
2022-11-15T04:56:33.335Z,6.07
2022-11-15T04:59:33.425Z,6.33
2022-11-15T05:02:09.283Z,5.97
2022-11-15T05:05:00.317Z,4.57
2022-11-15T05:07:28.816Z,6.23
2022-11-15T05:09:56.962Z,6.07
2022-11-15T05:16:00.228Z,5.77
2022-11-15T05:18:35.558Z,4.93
2022-11-15T05:21:22.393Z,6.20
2022-11-15T05:28:04.909Z,5.33
2022-11-15T05:31:05.192Z,6.03
2022-11-15T05:33:38.572Z,5.33
2022-11-15T05:36:56.382Z,5.23
2022-11-15T05:39:30.623Z,6.80
2022-11-15T05:42:28.010Z,4.47
2022-11-15T05:45:04.981Z,4.83
2022-11-15T05:48:22.840Z,5.87
2022-11-15T06:02:29.686Z,5.07
2022-11-15T06:05:13.394Z,5.90
2022-11-15T06:07:41.889Z,4.90
2022-11-15T06:10:22.171Z,5.40
2022-11-15T06:12:59.271Z,5.57
2022-11-15T06:18:51.875Z,7.00
2022-11-15T06:31:49.012Z,5.53
2022-11-15T06:42:15.987Z,4.70
2022-11-15T06:45:52.870Z,5.63
2022-11-15T06:48:49.344Z,5.03
2022-11-15T06:51:18.642Z,5.67
2022-11-15T06:53:46.506Z,4.97
2022-11-15T06:56:14.424Z,5.67
2022-11-15T06:58:42.409Z,4.43
2022-11-15T07:01:13.836Z,5.20
2022-11-15T07:03:43.673Z,5.07
2022-11-15T07:06:12.470Z,5.47
2022-11-15T07:08:42.850Z,5.67
2022-11-15T07:11:13.522Z,4.87
2022-11-15T07:13:41.368Z,4.80
2022-11-15T07:16:12.114Z,3.87
2022-11-15T07:18:41.958Z,3.87
2022-11-15T07:21:16.836Z,4.67
2022-11-15T07:23:45.997Z,4.03
2022-11-15T07:26:13.863Z,4.03
2022-11-15T07:28:44.619Z,3.93
2022-11-15T07:31:15.301Z,3.30
2022-11-15T07:33:43.494Z,3.53
2022-11-15T07:36:11.859Z,3.53
2022-11-15T07:38:43.040Z,3.00
2022-11-15T07:41:14.714Z,3.07
2022-11-15T07:43:45.215Z,4.17
2022-11-15T07:46:13.000Z,3.63
2022-11-15T07:48:45.063Z,3.23
2022-11-15T07:51:14.903Z,2.80
2022-11-15T07:53:42.969Z,2.80
2022-11-15T07:56:12.459Z,2.83
2022-11-15T07:58:43.090Z,2.47
2022-11-15T08:01:12.543Z,2.50
2022-11-15T08:03:40.616Z,2.43
2022-11-15T08:06:08.559Z,2.73
2022-11-15T08:08:36.324Z,2.10
2022-11-15T08:35:09.237Z,2.53
2022-11-15T08:37:39.769Z,3.90
2022-11-15T08:47:38.464Z,2.50
2022-11-15T08:53:44.878Z,3.03
2022-11-15T08:56:23.347Z,2.50
2022-11-15T08:58:57.305Z,2.00
2022-11-15T09:01:33.107Z,2.23
2022-11-15T09:04:01.232Z,1.90
2022-11-15T09:06:43.208Z,2.77
2022-11-15T09:09:12.970Z,2.00
2022-11-15T09:11:50.100Z,2.53
2022-11-15T09:14:18.265Z,2.03
2022-11-15T09:16:49.516Z,2.13
2022-11-15T09:19:19.329Z,1.97
2022-11-15T09:39:57.464Z,1.67
2022-11-15T09:43:12.610Z,1.80
2022-11-15T09:46:02.528Z,1.90
2022-11-15T09:49:52.633Z,2.83
2022-11-15T09:51:55.340Z,2.37
2022-11-15T09:58:33.881Z,2.10
2022-11-15T10:01:39.166Z,1.53
2022-11-15T10:04:11.796Z,1.60
2022-11-15T10:06:58.309Z,2.53
2022-11-15T10:10:03.002Z,2.00
2022-11-15T10:12:36.448Z,1.90
2022-11-15T10:15:23.646Z,2.13
2022-11-15T10:18:21.647Z,2.03
2022-11-15T10:20:52.089Z,1.77
2022-11-15T10:23:26.721Z,1.70
2022-11-15T10:26:07.004Z,1.63
2022-11-15T10:28:38.149Z,2.67
2022-11-15T10:31:34.536Z,1.60
2022-11-15T10:34:35.277Z,2.67
2022-11-15T10:37:04.021Z,2.93
2022-11-15T10:39:43.215Z,2.40
2022-11-15T10:42:19.612Z,2.40
2022-11-15T10:44:47.539Z,2.47
2022-11-15T10:47:39.222Z,2.27
2022-11-15T10:50:09.754Z,1.90
2022-11-15T10:52:38.843Z,1.70
2022-11-15T10:55:25.099Z,2.00
2022-11-15T10:57:54.935Z,2.13
2022-11-15T11:00:34.954Z,2.17
2022-11-15T11:03:12.731Z,2.53
2022-11-15T11:05:43.186Z,1.80
2022-11-15T11:08:26.032Z,2.37
2022-11-15T11:11:02.120Z,1.77
2022-11-15T11:13:32.780Z,1.80
2022-11-15T11:16:18.180Z,1.63
2022-11-15T11:18:54.665Z,1.80
2022-11-15T11:21:40.138Z,1.67
2022-11-15T11:24:16.936Z,2.10
2022-11-15T11:26:57.331Z,2.33
2022-11-15T11:29:37.008Z,2.17
2022-11-15T11:32:17.468Z,2.23
2022-11-15T11:34:59.658Z,1.90
2022-11-15T11:37:34.806Z,1.40
2022-11-15T11:40:16.445Z,1.40
2022-11-15T11:42:55.554Z,1.70
2022-11-15T11:45:47.405Z,1.50
2022-11-15T11:48:23.446Z,2.47
2022-11-15T11:50:52.899Z,1.67
2022-11-15T11:53:29.882Z,1.50
2022-11-15T11:56:01.630Z,2.00
2022-11-15T11:58:36.692Z,2.07
2022-11-15T12:01:14.105Z,2.07
2022-11-15T12:03:48.780Z,1.87
2022-11-15T12:06:26.076Z,1.70
2022-11-15T12:08:58.757Z,1.73
2022-11-15T12:11:38.083Z,1.80
2022-11-15T12:14:13.535Z,1.50
2022-11-15T12:16:44.967Z,1.30
2022-11-15T12:19:15.206Z,2.00
2022-11-15T12:21:49.578Z,1.80
2022-11-15T12:24:22.922Z,2.03
2022-11-15T12:26:54.683Z,1.80
2022-11-15T12:29:31.381Z,1.70
2022-11-15T12:32:03.226Z,2.30
2022-11-15T12:34:51.828Z,1.57
2022-11-15T12:37:54.927Z,1.70
2022-11-15T12:40:34.826Z,1.77
2022-11-15T12:43:22.167Z,2.03
2022-11-15T12:45:50.060Z,1.30
2022-11-15T12:48:57.625Z,1.83
2022-11-15T12:52:06.073Z,2.40
2022-11-15T12:55:25.995Z,1.83
2022-11-15T12:57:56.904Z,2.43
2022-11-15T13:00:48.701Z,1.50
2022-11-15T13:03:28.701Z,2.33
2022-11-15T13:06:11.059Z,1.80
2022-11-15T13:08:52.100Z,1.70
2022-11-15T13:11:50.991Z,1.63
2022-11-15T13:14:48.141Z,1.60
2022-11-15T13:17:27.108Z,2.00
2022-11-15T13:20:02.348Z,1.80
2022-11-15T13:22:53.375Z,1.50
2022-11-15T13:25:35.837Z,6.93
2022-11-15T13:28:13.526Z,1.60
2022-11-15T13:30:43.287Z,1.93
2022-11-15T13:33:18.314Z,1.57
2022-11-15T13:35:50.828Z,1.43
2022-11-15T13:38:27.536Z,2.23
2022-11-15T13:40:56.466Z,1.50
2022-11-15T13:43:36.832Z,1.70
2022-11-15T13:46:18.498Z,1.60
2022-11-15T13:48:54.099Z,1.80
2022-11-15T13:51:29.847Z,1.97
2022-11-15T13:54:00.607Z,1.60
2022-11-15T13:56:30.091Z,1.83
2022-11-15T13:58:59.823Z,1.43
2022-11-15T14:01:34.073Z,1.57
2022-11-15T14:04:03.261Z,2.23
2022-11-15T14:06:32.382Z,1.83
2022-11-15T14:09:34.879Z,1.77
2022-11-15T14:12:33.146Z,2.03
2022-11-15T14:15:20.577Z,1.77
2022-11-15T14:17:50.265Z,2.17
2022-11-15T14:20:28.580Z,1.70
2022-11-15T14:23:00.780Z,2.27
2022-11-15T14:25:36.558Z,1.90
2022-11-15T14:28:17.813Z,2.30
2022-11-15T14:30:51.223Z,2.07
2022-11-15T14:33:25.117Z,2.10
2022-11-15T14:35:54.037Z,2.03
2022-11-15T14:38:22.242Z,2.20
2022-11-15T14:40:51.251Z,2.13
2022-11-15T14:43:19.688Z,2.23
2022-11-15T14:45:52.166Z,1.70
2022-11-15T14:48:20.503Z,2.07
2022-11-15T14:50:48.387Z,2.63
2022-11-15T14:53:23.992Z,2.33
2022-11-15T14:55:52.034Z,1.90
2022-11-15T14:58:20.270Z,2.53
2022-11-15T15:00:52.768Z,2.87
2022-11-15T15:03:20.795Z,2.33
2022-11-15T15:05:51.764Z,1.87
2022-11-15T15:08:19.827Z,2.00
2022-11-15T15:10:48.457Z,2.33
2022-11-15T15:13:19.759Z,2.60
2022-11-15T15:15:50.413Z,2.60
2022-11-15T15:18:22.863Z,3.07
2022-11-15T15:21:00.888Z,3.00
2022-11-15T15:23:34.196Z,2.77
2022-11-15T15:26:04.329Z,2.93
2022-11-15T15:28:34.857Z,2.57
2022-11-15T15:31:04.085Z,3.10
2022-11-15T15:33:35.835Z,3.37
2022-11-15T15:36:22.202Z,2.50
2022-11-15T15:38:50.124Z,2.93
2022-11-15T15:41:19.010Z,3.03
2022-11-15T15:43:47.390Z,2.73
2022-11-15T15:46:17.973Z,2.80
2022-11-15T15:48:50.810Z,2.97
2022-11-15T15:51:22.152Z,3.03
2022-11-15T15:53:51.753Z,3.27
2022-11-15T15:56:20.942Z,5.10
2022-11-15T15:58:53.553Z,4.80
2022-11-15T16:01:21.855Z,4.97
2022-11-15T16:03:51.051Z,3.17
2022-11-15T16:06:39.156Z,3.23
2022-11-15T16:09:15.199Z,3.80
2022-11-15T16:11:46.377Z,9.00
2022-11-15T16:14:14.318Z,24.33
2022-11-15T16:16:42.200Z,22.17
2022-11-15T16:19:14.545Z,15.70
2022-11-15T16:21:42.427Z,6.10
2022-11-15T16:24:13.203Z,6.77
2022-11-15T16:26:41.465Z,5.27
2022-11-15T16:29:11.063Z,5.23
2022-11-15T16:31:39.266Z,7.47
2022-11-15T16:34:07.630Z,8.00
2022-11-15T16:36:39.404Z,8.20
2022-11-15T16:39:07.841Z,8.17
2022-11-15T16:41:35.662Z,5.77
2022-11-15T16:44:05.914Z,6.47
2022-11-15T16:46:36.462Z,7.40
2022-11-15T16:49:07.074Z,8.03
2022-11-15T16:51:36.236Z,7.03
2022-11-15T16:54:04.074Z,11.03
2022-11-15T16:56:32.357Z,8.30
2022-11-15T16:59:07.102Z,8.13
2022-11-15T17:01:36.871Z,4.37
2022-11-15T17:04:12.954Z,5.83
2022-11-15T17:06:45.845Z,6.23
2022-11-15T17:09:17.299Z,4.80
2022-11-15T17:11:45.667Z,6.40
2022-11-15T17:14:17.502Z,5.03
2022-11-15T17:16:48.288Z,4.70
2022-11-15T17:19:17.360Z,7.03
2022-11-15T17:21:56.080Z,5.83
2022-11-15T17:24:24.129Z,5.70
2022-11-15T17:26:52.117Z,4.47
2022-11-15T17:29:25.888Z,4.03
2022-11-15T17:31:53.716Z,4.93
2022-11-15T17:34:21.530Z,5.17
2022-11-15T17:36:56.836Z,3.93
2022-11-15T17:39:25.067Z,4.87
2022-11-15T17:41:52.888Z,5.73
2022-11-15T17:44:20.745Z,6.07
2022-11-15T17:46:50.834Z,5.30
2022-11-15T17:49:19.982Z,4.80
2022-11-15T17:51:50.131Z,4.50
2022-11-15T17:54:19.614Z,4.97
2022-11-15T17:56:51.029Z,4.80
2022-11-15T17:59:25.100Z,5.03
2022-11-15T18:01:53.948Z,4.80
2022-11-15T18:04:21.956Z,5.73
2022-11-15T18:06:52.628Z,6.70
2022-11-15T18:09:26.464Z,5.80
2022-11-15T18:11:54.748Z,6.37
2022-11-15T18:14:26.727Z,5.50
2022-11-15T18:16:57.231Z,8.00
2022-11-15T18:19:27.664Z,7.33
2022-11-15T18:21:58.978Z,5.83
2022-11-15T18:24:30.870Z,7.53
2022-11-15T18:26:59.912Z,7.60
2022-11-15T18:29:28.107Z,4.87
2022-11-15T18:31:56.307Z,6.73
2022-11-15T18:34:25.372Z,5.97
2022-11-15T18:36:54.169Z,6.00
2022-11-15T18:39:24.287Z,6.17
2022-11-15T18:41:53.571Z,6.57
2022-11-15T18:44:23.792Z,6.27
2022-11-15T18:46:53.462Z,5.80
2022-11-15T18:49:23.410Z,7.63
2022-11-15T18:51:53.608Z,4.70
2022-11-15T18:54:22.805Z,5.27
2022-11-15T18:56:54.804Z,5.97
2022-11-15T18:59:24.283Z,5.20
2022-11-15T19:01:52.250Z,5.37
2022-11-15T19:04:22.560Z,6.10
2022-11-15T19:06:54.756Z,6.07
2022-11-15T19:09:33.993Z,5.07
2022-11-15T19:12:06.195Z,5.77
2022-11-15T19:14:34.279Z,6.40
2022-11-15T19:17:02.103Z,5.70
2022-11-15T19:19:29.975Z,5.00
2022-11-15T19:21:58.352Z,4.63
2022-11-15T19:24:27.244Z,5.27
2022-11-15T19:26:56.719Z,5.50
2022-11-15T19:29:25.917Z,6.47
2022-11-15T19:31:53.680Z,5.40
2022-11-15T19:34:27.098Z,6.13
2022-11-15T19:36:56.486Z,6.73
2022-11-15T19:39:27.283Z,6.07
2022-11-15T19:41:55.054Z,6.73
2022-11-15T19:44:26.348Z,6.77
2022-11-15T19:46:57.843Z,5.10
2022-11-15T19:49:26.154Z,7.00
2022-11-15T19:51:57.025Z,5.60
2022-11-15T19:54:25.073Z,6.67
2022-11-15T19:56:59.112Z,7.03
2022-11-15T19:59:26.938Z,5.50
2022-11-15T20:01:56.217Z,5.97
2022-11-15T20:04:24.245Z,6.57
2022-11-15T20:06:55.296Z,6.83
2022-11-15T20:09:25.877Z,7.87
2022-11-15T20:14:49.018Z,6.23
2022-11-15T20:17:21.091Z,5.77
2022-11-15T20:20:10.618Z,6.20
2022-11-15T20:22:41.736Z,5.87
2022-11-15T20:29:32.665Z,6.37
2022-11-15T20:32:05.733Z,6.30
2022-11-15T20:34:53.823Z,7.67
2022-11-15T20:37:30.646Z,6.13
2022-11-15T20:40:22.008Z,6.17
2022-11-15T20:42:54.018Z,6.13
2022-11-15T20:45:25.787Z,7.50
2022-11-15T20:48:14.176Z,6.73
2022-11-15T20:50:47.269Z,6.30
2022-11-15T20:53:20.510Z,6.57
2022-11-15T20:56:07.776Z,4.87
2022-11-15T20:59:02.964Z,6.80
2022-11-15T21:01:36.844Z,5.30
2022-11-15T21:04:12.202Z,5.77
2022-11-15T21:06:48.839Z,5.50
2022-11-15T21:10:21.728Z,5.60
2022-11-15T21:12:51.158Z,4.70
2022-11-15T21:16:08.704Z,5.60
2022-11-15T21:19:21.607Z,4.93
2022-11-15T21:22:01.722Z,5.43
2022-11-15T21:24:39.325Z,5.43
2022-11-15T21:38:03.575Z,5.00
2022-11-15T21:40:38.960Z,4.93
2022-11-15T21:43:07.718Z,4.70
2022-11-15T21:46:12.535Z,4.73
2022-11-15T21:48:53.768Z,5.00
2022-11-15T21:51:31.590Z,5.23
2022-11-15T21:54:23.846Z,4.80
2022-11-15T21:57:24.457Z,4.50
2022-11-15T22:00:15.409Z,5.00
2022-11-15T22:02:51.639Z,5.40
2022-11-15T22:05:22.494Z,4.90
2022-11-15T22:08:36.171Z,4.87
2022-11-15T22:11:06.666Z,4.53
2022-11-15T22:13:39.108Z,5.10
2022-11-15T22:16:15.233Z,4.80
2022-11-15T22:19:23.979Z,5.70
2022-11-15T22:21:55.271Z,6.37
2022-11-15T22:24:36.454Z,5.67
2022-11-15T22:30:12.782Z,5.77
2022-11-15T22:33:26.429Z,5.67
2022-11-15T22:37:18.176Z,6.60
2022-11-15T22:48:14.182Z,4.93
2022-11-15T23:37:00.805Z,5.13
2022-11-15T23:40:06.041Z,4.33
2022-11-15T23:42:40.935Z,4.90
2022-11-15T23:45:10.084Z,5.37
2022-11-15T23:47:47.364Z,4.23
2022-11-15T23:50:44.294Z,4.63
2022-11-15T23:53:30.224Z,4.20
2022-11-15T23:56:06.321Z,5.33
2022-11-15T23:58:49.635Z,4.50
